首页
METAR-TAF:

METAR-TAF

机场 :

扎黑丹機場

扎黑丹, 伊朗

纬度: 29-28N, 经度: 060-53E, 海拔: 1370米

当前天气观测

该预报发布于52分钟前的07:30 UTC
风速10节,风向
温度 25°C
湿度 24%
气压 1018 hPa
能见度10公里或以上
散云层高于4000英尺, 塔状积云.

METAR: OIZH 030730Z 08010KT 9999 SCT040TCU 25/03 Q1018 A3007

时间: 12:52 (08:22 UTC)

预报

该预报发布于3小时和22分钟前的05:00 UTC
预报有效从03日的 06点(UTC)到 04日的 12点(UTC)
风速6节,风向
能見度: 8000
少量云层高于4000英尺
散云层高于10000英尺
短暂存在
从 03日的 09点(UTC)到 03日的 18点(UTC)
风速14节,风向西南,有时为24节阵风
能見度: 5000
散云层高于3500英尺, 积雨云.
散云层高于4000英尺
多云层高于9000英尺
雷暴, 雨, 扬沙

TAF: OIZH 030500Z 0306/0412 18006KT 8000 FEW040 SCT100 TEMPO 0309/0318 22014G24KT 5000 TSRA SA SCT035CB SCT040 BKN090

超过4000个机场的气象观测和天气预报(METAR&TAF报告)。

可查询的气象台以黄色和红色小点在地图上表示。

将鼠标移到小点上方,可查看气象台名称。

然后点击查看天气观测和预报。

如需切换地图:点击带黑十字的绿色按钮放大地图;点击带横线的绿色按钮缩小地图;或者点击绿色箭头查看邻近地区的地图。


METAR-TAF: